Time;durP1;ratioP1;P1;durP2;ratioP2;P2;SDS_P1;SDS_P2;PMS_P1;PMS_P2;Temp;Humidity;BMP_temperature;BMP_pressure;BME280_temperature;BME280_humidity;BME280_pressure;Samples;Min_cycle;Max_cycle;Signal;HPM_P1;HPM_P2
2023/06/21 00:00:17;;;;;;;43.30;39.40;;;22.50;99.90;;;;;;5100210;28;20464;-68
2023/06/21 00:02:44;;;;;;;45.20;40.80;;;22.40;99.90;;;;;;5100464;28;20489;-69
2023/06/21 00:05:11;;;;;;;45.20;40.80;;;22.40;99.90;;;;;;5100617;28;20529;-68
2023/06/21 00:07:41;;;;;;;42.80;38.93;;;22.40;99.90;;;;;;5101132;28;20461;-68
2023/06/21 00:10:08;;;;;;;42.10;38.10;;;22.40;99.90;;;;;;5100443;28;20460;-68
2023/06/21 00:12:35;;;;;;;42.30;38.20;;;22.40;99.90;;;;;;5100335;28;20983;-68
2023/06/21 00:15:03;;;;;;;41.13;37.40;;;22.30;99.90;;;;;;5100691;28;20962;-68
2023/06/21 00:17:33;;;;;;;43.37;39.17;;;22.30;99.90;;;;;;5100633;28;20457;-68
2023/06/21 00:19:59;;;;;;;42.33;38.43;;;22.30;99.90;;;;;;5100638;28;20460;-68
2023/06/21 00:22:28;;;;;;;41.77;37.87;;;22.30;99.90;;;;;;5100645;28;20544;-68
2023/06/21 00:24:57;;;;;;;41.77;37.73;;;22.30;99.90;;;;;;5101077;28;20458;-68
2023/06/21 00:27:23;;;;;;;40.60;36.90;;;22.30;99.90;;;;;;5100779;28;20460;-68
2023/06/21 00:29:50;;;;;;;39.97;36.30;;;22.30;99.90;;;;;;5100276;28;20544;-68
2023/06/21 00:32:17;;;;;;;40.10;36.47;;;22.30;99.90;;;;;;5100558;28;20457;-68
2023/06/21 00:34:46;;;;;;;41.73;37.07;;;22.20;99.90;;;;;;5099574;28;20458;-68
2023/06/21 00:37:13;;;;;;;40.67;36.87;;;22.20;99.90;;;;;;5100175;28;20453;-68
2023/06/21 00:39:40;;;;;;;40.27;36.47;;;22.20;99.90;;;;;;5100151;28;20465;-69
2023/06/21 00:42:10;;;;;;;40.60;36.90;;;22.20;99.90;;;;;;5100222;28;20489;-68
2023/06/21 00:44:37;;;;;;;40.40;36.40;;;22.20;99.90;;;;;;5100252;28;20514;-68
2023/06/21 00:47:05;;;;;;;42.10;37.87;;;22.20;99.90;;;;;;5099854;28;20464;-69
2023/06/21 00:49:33;;;;;;;40.50;36.90;;;22.20;99.90;;;;;;5099886;28;20754;-69
2023/06/21 00:52:00;;;;;;;38.00;34.50;;;22.10;99.90;;;;;;5099666;28;20469;-68
2023/06/21 00:54:30;;;;;;;40.20;36.53;;;22.10;99.90;;;;;;5099561;28;20471;-68
2023/06/21 00:56:57;;;;;;;40.80;37.10;;;22.10;99.90;;;;;;5098926;28;20547;-68
2023/06/21 00:59:27;;;;;;;41.00;37.20;;;22.10;99.90;;;;;;5099414;28;20472;-68
2023/06/21 01:01:55;;;;;;;39.73;36.13;;;22.10;99.90;;;;;;5098811;28;20464;-69
2023/06/21 01:04:22;;;;;;;39.53;35.87;;;22.10;99.90;;;;;;5099509;28;20453;-68
2023/06/21 01:06:55;;;;;;;38.43;34.90;;;22.10;99.90;;;;;;5099238;28;20548;-68
2023/06/21 01:09:40;;;;;;;40.20;36.60;;;22.10;99.90;;;;;;5099724;28;20524;-68
2023/06/21 01:12:19;;;;;;;39.00;35.23;;;22.10;99.90;;;;;;5098988;28;20563;-68
2023/06/21 01:14:56;;;;;;;39.27;35.53;;;22.10;99.90;;;;;;5099242;28;20452;-69
2023/06/21 01:17:23;;;;;;;38.63;35.10;;;22.10;99.90;;;;;;5099424;28;20447;-69
2023/06/21 01:19:54;;;;;;;36.27;33.07;;;22.00;99.90;;;;;;5099320;28;20457;-69
2023/06/21 01:22:40;;;;;;;38.27;34.77;;;22.00;99.90;;;;;;5099297;28;20537;-68
2023/06/21 01:25:23;;;;;;;36.97;33.67;;;22.10;99.90;;;;;;5099598;28;20476;-70
2023/06/21 01:28:02;;;;;;;36.60;33.30;;;22.00;99.90;;;;;;5099500;28;20930;-68
2023/06/21 01:30:33;;;;;;;37.70;34.30;;;22.10;99.90;;;;;;5099305;28;20961;-68
2023/06/21 01:33:00;;;;;;;36.27;32.73;;;22.10;99.90;;;;;;5099111;28;20489;-68
2023/06/21 01:35:27;;;;;;;38.03;34.33;;;22.00;99.90;;;;;;5098059;28;20925;-68
2023/06/21 01:37:58;;;;;;;37.90;34.40;;;22.00;99.90;;;;;;5098388;28;20445;-68
2023/06/21 01:40:25;;;;;;;34.77;31.60;;;22.00;99.90;;;;;;5098271;28;20895;-68
2023/06/21 01:42:51;;;;;;;36.17;32.93;;;22.00;99.90;;;;;;5098674;28;20785;-68
2023/06/21 01:45:21;;;;;;;35.60;32.40;;;22.00;99.90;;;;;;5098160;28;20464;-68
2023/06/21 01:47:51;;;;;;;38.70;34.83;;;22.00;99.90;;;;;;5098242;28;20759;-68
2023/06/21 01:50:20;;;;;;;35.87;32.47;;;22.00;99.90;;;;;;5097985;28;20545;-69
2023/06/21 01:52:48;;;;;;;35.27;32.00;;;22.00;99.90;;;;;;5098944;28;20540;-69
2023/06/21 01:55:17;;;;;;;34.60;31.50;;;22.00;99.90;;;;;;5098504;28;20849;-68
2023/06/21 01:57:44;;;;;;;35.97;32.67;;;22.00;99.90;;;;;;5097857;28;20944;-68
2023/06/21 02:00:16;;;;;;;36.80;33.20;;;22.00;99.90;;;;;;5097764;28;20460;-68
2023/06/21 02:02:47;;;;;;;34.40;31.17;;;22.10;99.90;;;;;;5097881;28;20783;-69
2023/06/21 02:05:17;;;;;;;34.50;31.20;;;22.10;99.90;;;;;;5097709;28;20437;-68
2023/06/21 02:07:46;;;;;;;36.33;33.13;;;22.10;99.90;;;;;;5096893;28;20465;-68
2023/06/21 02:10:14;;;;;;;35.83;32.63;;;22.10;99.90;;;;;;5097435;28;20548;-68
2023/06/21 02:12:41;;;;;;;34.57;31.47;;;22.10;99.90;;;;;;5096896;28;20575;-68
2023/06/21 02:15:09;;;;;;;34.57;31.47;;;22.00;99.90;;;;;;5096646;28;20453;-68
2023/06/21 02:17:36;;;;;;;36.60;33.10;;;22.00;99.90;;;;;;5097016;28;20477;-68
2023/06/21 02:20:07;;;;;;;33.90;30.77;;;22.10;99.90;;;;;;5097029;28;20500;-68
2023/06/21 02:22:35;;;;;;;34.57;31.27;;;22.10;99.90;;;;;;5097812;28;20862;-69
2023/06/21 02:25:02;;;;;;;35.30;32.10;;;22.10;99.90;;;;;;5096765;28;20544;-68
2023/06/21 02:27:29;;;;;;;36.13;32.77;;;22.10;99.90;;;;;;5096223;28;20465;-69
2023/06/21 02:29:56;;;;;;;36.60;33.10;;;22.10;99.90;;;;;;5096529;28;20829;-69
2023/06/21 02:32:23;;;;;;;37.83;34.20;;;22.00;99.90;;;;;;5096606;28;20540;-69
2023/06/21 02:34:49;;;;;;;35.63;32.33;;;22.00;99.90;;;;;;5096592;28;20463;-69
2023/06/21 02:37:16;;;;;;;32.80;29.60;;;21.80;99.90;;;;;;5098014;28;20484;-68
2023/06/21 02:39:45;;;;;;;31.87;28.87;;;21.70;99.90;;;;;;5098598;28;20552;-68
2023/06/21 02:42:11;;;;;;;34.07;30.93;;;21.60;99.90;;;;;;5099018;28;20949;-68
2023/06/21 02:44:38;;;;;;;35.87;32.47;;;21.60;99.90;;;;;;5098273;28;20518;-68
2023/06/21 02:47:05;;;;;;;35.90;32.50;;;21.50;99.90;;;;;;5096398;28;20460;-69
2023/06/21 02:49:36;;;;;;;36.60;33.20;;;21.30;99.90;;;;;;5095572;28;20453;-69
2023/06/21 02:52:04;;;;;;;36.67;33.10;;;21.20;99.90;;;;;;5095739;28;20442;-69
2023/06/21 02:54:31;;;;;;;37.40;33.90;;;21.00;99.90;;;;;;5095320;28;20457;-69
2023/06/21 02:56:59;;;;;;;39.87;35.97;;;21.00;99.90;;;;;;5094730;28;20473;-68
2023/06/21 02:59:28;;;;;;;41.30;37.03;;;20.90;99.90;;;;;;5094646;28;20460;-69
2023/06/21 03:01:55;;;;;;;38.47;34.63;;;20.80;99.90;;;;;;5095311;28;20453;-68
2023/06/21 03:04:22;;;;;;;38.87;35.23;;;20.90;99.90;;;;;;5095399;28;20548;-69
2023/06/21 03:06:49;;;;;;;38.60;34.90;;;20.90;99.90;;;;;;5094970;28;20449;-69
2023/06/21 03:09:16;;;;;;;39.97;36.17;;;20.80;99.90;;;;;;5095135;28;20495;-68
2023/06/21 03:11:44;;;;;;;39.80;36.00;;;20.90;99.90;;;;;;5094980;28;20930;-69
2023/06/21 03:14:12;;;;;;;40.43;36.53;;;20.90;99.90;;;;;;5096074;28;20445;-69
2023/06/21 03:16:41;;;;;;;42.57;38.37;;;20.80;99.90;;;;;;5095202;28;20877;-69
2023/06/21 03:19:08;;;;;;;49.00;44.37;;;20.70;99.90;;;;;;5095999;28;20462;-69
2023/06/21 03:21:35;;;;;;;48.80;44.07;;;20.70;99.90;;;;;;5098997;28;20476;-69
2023/06/21 03:24:02;;;;;;;47.10;42.50;;;20.80;99.90;;;;;;5099204;28;20510;-69
2023/06/21 03:26:29;;;;;;;47.70;43.10;;;20.70;99.90;;;;;;5098666;28;20533;-69
2023/06/21 03:28:57;;;;;;;49.10;44.00;;;20.80;99.90;;;;;;5098652;28;20764;-69
2023/06/21 03:31:25;;;;;;;49.37;44.37;;;20.80;99.90;;;;;;5098568;28;20496;-69
2023/06/21 03:33:52;;;;;;;51.07;46.07;;;20.80;99.90;;;;;;5098725;28;20988;-69
2023/06/21 03:36:19;;;;;;;52.93;47.43;;;20.90;99.90;;;;;;5098617;28;20568;-69
2023/06/21 03:38:48;;;;;;;50.63;45.30;;;20.90;99.90;;;;;;5098226;28;20511;-69
2023/06/21 03:41:15;;;;;;;54.43;49.07;;;20.90;99.90;;;;;;5098542;28;20494;-69
2023/06/21 03:43:42;;;;;;;54.17;48.50;;;20.90;99.90;;;;;;5098644;28;20467;-69
2023/06/21 03:46:09;;;;;;;56.47;50.83;;;20.80;99.90;;;;;;5099112;28;20882;-69
2023/06/21 03:48:37;;;;;;;56.40;50.30;;;20.80;99.90;;;;;;5098542;28;20936;-69
2023/06/21 03:51:04;;;;;;;56.20;50.40;;;20.90;99.90;;;;;;5098885;28;20857;-68
2023/06/21 03:53:31;;;;;;;58.90;51.60;;;20.90;99.90;;;;;;5098978;28;20456;-68
2023/06/21 03:55:58;;;;;;;55.70;49.70;;;20.80;99.90;;;;;;5098885;28;20495;-68
2023/06/21 03:58:25;;;;;;;56.77;50.97;;;20.80;99.90;;;;;;5098984;28;20536;-68
2023/06/21 04:00:52;;;;;;;56.00;50.33;;;20.80;99.90;;;;;;5099334;28;20786;-68
2023/06/21 04:03:19;;;;;;;57.87;51.67;;;20.80;99.90;;;;;;5099332;28;20460;-68
2023/06/21 04:05:47;;;;;;;56.20;50.40;;;20.90;99.90;;;;;;5099593;28;20454;-68
2023/06/21 04:08:14;;;;;;;56.50;50.60;;;20.90;99.90;;;;;;5100407;28;20536;-68
2023/06/21 04:10:41;;;;;;;56.47;50.27;;;20.90;99.90;;;;;;5100103;28;20457;-69
2023/06/21 04:13:08;;;;;;;55.50;50.00;;;20.90;99.90;;;;;;5098999;28;20497;-69
2023/06/21 04:15:35;;;;;;;58.77;52.60;;;20.90;99.90;;;;;;5099158;28;20968;-69
2023/06/21 04:18:02;;;;;;;56.70;50.80;;;20.90;99.90;;;;;;5098675;28;20481;-69
2023/06/21 04:20:32;;;;;;;60.50;54.30;;;21.00;99.90;;;;;;5098710;28;20536;-69
2023/06/21 04:23:00;;;;;;;62.20;55.60;;;21.00;99.90;;;;;;5097986;28;21006;-68
2023/06/21 04:25:27;;;;;;;63.47;56.10;;;21.00;99.90;;;;;;5097487;28;20453;-68
2023/06/21 04:27:54;;;;;;;60.20;54.17;;;21.10;99.90;;;;;;5097740;28;20534;-68
2023/06/21 04:30:21;;;;;;;63.73;57.20;;;21.10;99.90;;;;;;5097355;28;20460;-69
2023/06/21 04:32:48;;;;;;;58.67;52.57;;;21.10;99.90;;;;;;5097548;28;20457;-69
2023/06/21 04:35:15;;;;;;;62.70;56.00;;;21.20;99.90;;;;;;5097457;28;20463;-69
2023/06/21 04:37:44;;;;;;;65.80;57.23;;;21.20;99.90;;;;;;5097738;28;20520;-69
2023/06/21 04:40:16;;;;;;;59.77;53.20;;;21.20;99.90;;;;;;5097995;28;20479;-69
2023/06/21 04:42:43;;;;;;;57.20;51.20;;;21.30;99.90;;;;;;5098803;28;20438;-68
2023/06/21 04:45:14;;;;;;;52.87;47.60;;;21.40;99.90;;;;;;5099154;28;20457;-68
2023/06/21 04:47:41;;;;;;;52.57;47.37;;;21.30;99.90;;;;;;5099679;28;20469;-68
2023/06/21 04:50:10;;;;;;;51.97;46.80;;;21.40;99.90;;;;;;5099306;28;20471;-68
2023/06/21 04:52:37;;;;;;;52.40;47.30;;;21.40;99.90;;;;;;5099118;28;20854;-69
2023/06/21 04:55:05;;;;;;;52.30;47.27;;;21.40;99.90;;;;;;5099398;28;20982;-68
2023/06/21 04:57:33;;;;;;;50.17;45.47;;;21.50;99.90;;;;;;5099112;28;20556;-69
2023/06/21 05:00:06;;;;;;;51.80;46.80;;;21.50;99.90;;;;;;5098874;28;20997;-69
2023/06/21 05:02:32;;;;;;;51.73;46.47;;;21.60;99.90;;;;;;5098836;28;20441;-68
2023/06/21 05:05:00;;;;;;;53.90;48.80;;;21.70;99.90;;;;;;5099036;28;20481;-69
2023/06/21 05:07:29;;;;;;;49.57;44.90;;;21.70;99.90;;;;;;5099315;28;20985;-69
2023/06/21 05:09:56;;;;;;;51.57;46.60;;;21.70;99.90;;;;;;5099295;28;20536;-69
2023/06/21 05:12:23;;;;;;;51.60;46.63;;;21.70;99.90;;;;;;5098398;28;20656;-69
2023/06/21 05:14:51;;;;;;;49.40;44.50;;;21.70;99.90;;;;;;5098981;28;20851;-69
2023/06/21 05:17:18;;;;;;;50.17;45.13;;;21.70;99.90;;;;;;5099463;28;20639;-69
2023/06/21 05:19:45;;;;;;;49.73;45.23;;;21.70;99.90;;;;;;5099343;28;20457;-70
2023/06/21 05:22:12;;;;;;;49.67;44.97;;;21.70;99.90;;;;;;5098347;28;20453;-69
2023/06/21 05:24:39;;;;;;;48.37;43.77;;;21.70;99.90;;;;;;5098173;28;20536;-70
2023/06/21 05:27:09;;;;;;;48.97;43.97;;;21.60;99.90;;;;;;5098558;28;20528;-70
2023/06/21 05:29:36;;;;;;;53.23;47.93;;;21.60;99.90;;;;;;5098053;28;20495;-70
2023/06/21 05:32:05;;;;;;;49.83;44.90;;;21.50;99.90;;;;;;5097895;28;20761;-69
2023/06/21 05:34:32;;;;;;;50.93;46.17;;;21.50;99.90;;;;;;5098267;28;20507;-68
2023/06/21 05:36:59;;;;;;;51.47;46.57;;;21.60;99.90;;;;;;5097095;28;21052;-68
2023/06/21 05:39:26;;;;;;;49.93;45.10;;;21.60;99.90;;;;;;5097021;28;20539;-68
2023/06/21 05:41:52;;;;;;;47.37;42.70;;;21.60;99.90;;;;;;5097131;28;20454;-69
2023/06/21 05:44:19;;;;;;;46.97;42.60;;;21.60;99.90;;;;;;5097780;28;20890;-68
2023/06/21 05:46:46;;;;;;;48.10;43.40;;;21.60;99.90;;;;;;5097919;28;20540;-70
2023/06/21 05:49:14;;;;;;;44.70;40.40;;;21.60;99.90;;;;;;5098126;28;20536;-69
2023/06/21 05:51:41;;;;;;;41.00;37.30;;;21.70;99.90;;;;;;5098346;28;20544;-69
2023/06/21 05:54:08;;;;;;;39.27;35.70;;;21.80;99.90;;;;;;5096295;28;20793;-69
2023/06/21 05:56:37;;;;;;;39.77;35.97;;;21.80;99.90;;;;;;5095100;28;20545;-69
2023/06/21 05:59:04;;;;;;;41.70;37.73;;;21.80;99.90;;;;;;5095350;28;20910;-69
2023/06/21 06:01:31;;;;;;;42.77;38.67;;;21.80;99.90;;;;;;5095767;28;20561;-69
2023/06/21 06:03:58;;;;;;;41.83;38.03;;;21.90;99.90;;;;;;5095675;28;20794;-69
2023/06/21 06:06:35;;;;;;;42.73;38.67;;;21.90;99.90;;;;;;5096027;28;20463;-69
2023/06/21 06:09:02;;;;;;;42.93;38.67;;;21.90;99.90;;;;;;5095734;28;20441;-69
2023/06/21 06:11:29;;;;;;;39.03;35.53;;;21.90;99.90;;;;;;5096176;28;20489;-69
2023/06/21 06:13:56;;;;;;;38.50;34.80;;;21.90;99.90;;;;;;5095996;28;20799;-68
2023/06/21 06:16:22;;;;;;;38.37;34.87;;;22.00;99.90;;;;;;5095343;28;20449;-68
2023/06/21 06:18:49;;;;;;;39.27;35.67;;;21.90;99.90;;;;;;5094963;28;20491;-69
2023/06/21 06:21:21;;;;;;;38.43;34.70;;;21.90;99.90;;;;;;5094940;28;20786;-68
2023/06/21 06:23:50;;;;;;;38.60;34.97;;;21.90;99.90;;;;;;5094637;28;20845;-69
2023/06/21 06:26:18;;;;;;;35.47;31.60;;;21.90;99.90;;;;;;5094722;28;20468;-69
2023/06/21 06:28:45;;;;;;;39.77;35.87;;;21.90;99.90;;;;;;5094588;28;20544;-68
2023/06/21 06:31:12;;;;;;;39.30;35.50;;;22.00;99.90;;;;;;5094645;28;20782;-69
2023/06/21 06:33:42;;;;;;;40.10;36.20;;;22.00;99.90;;;;;;5093971;28;20449;-68
2023/06/21 06:36:09;;;;;;;38.40;34.93;;;22.10;99.90;;;;;;5094084;28;20561;-69
2023/06/21 06:38:36;;;;;;;37.80;34.07;;;22.20;99.90;;;;;;5093897;28;20568;-68
2023/06/21 06:41:04;;;;;;;38.87;35.37;;;22.20;99.90;;;;;;5094442;28;20453;-69
2023/06/21 06:43:31;;;;;;;38.60;34.90;;;22.20;99.90;;;;;;5094290;28;20931;-69
2023/06/21 06:45:58;;;;;;;38.30;34.60;;;22.20;99.90;;;;;;5094392;28;20461;-68
2023/06/21 06:48:25;;;;;;;36.77;33.37;;;22.30;99.90;;;;;;5094573;28;20449;-69
2023/06/21 06:50:54;;;;;;;35.53;32.23;;;22.40;99.90;;;;;;5094780;28;20794;-68
2023/06/21 06:53:21;;;;;;;34.03;31.00;;;22.40;99.90;;;;;;5095950;28;20552;-68
2023/06/21 06:55:49;;;;;;;34.90;31.60;;;22.40;99.90;;;;;;5098300;28;20460;-68
2023/06/21 06:58:17;;;;;;;33.40;29.87;;;22.30;99.90;;;;;;5097976;28;20477;-68
2023/06/21 07:00:43;;;;;;;30.63;27.73;;;22.40;99.90;;;;;;5098624;28;20556;-68
2023/06/21 07:03:10;;;;;;;31.67;28.70;;;22.50;99.90;;;;;;5099291;28;20457;-68
2023/06/21 07:05:42;;;;;;;32.77;29.57;;;22.50;99.90;;;;;;5098731;28;20773;-68
2023/06/21 07:08:10;;;;;;;33.10;30.00;;;22.50;99.90;;;;;;5098101;28;20442;-68
2023/06/21 07:10:39;;;;;;;32.97;30.07;;;22.50;99.90;;;;;;5098041;28;20471;-68
2023/06/21 07:13:07;;;;;;;32.37;29.43;;;22.50;99.90;;;;;;5097529;28;20551;-67
2023/06/21 07:15:38;;;;;;;28.07;25.27;;;22.70;99.90;;;;;;5099394;28;20496;-69
2023/06/21 07:18:05;;;;;;;28.13;25.43;;;22.70;99.90;;;;;;5098443;28;20483;-68
2023/06/21 07:20:32;;;;;;;27.10;24.43;;;22.70;99.90;;;;;;5099212;28;20639;-68
2023/06/21 07:22:59;;;;;;;26.63;24.23;;;22.70;99.90;;;;;;5098564;28;20456;-68
2023/06/21 07:25:26;;;;;;;25.57;23.33;;;22.80;99.90;;;;;;5098324;28;20936;-68
2023/06/21 07:27:52;;;;;;;26.77;24.00;;;22.80;99.90;;;;;;5099322;28;20549;-68
2023/06/21 07:30:20;;;;;;;23.90;21.70;;;23.00;99.90;;;;;;5099436;28;20463;-68
2023/06/21 07:32:48;;;;;;;23.47;21.27;;;23.10;99.90;;;;;;5098938;28;20481;-68
2023/06/21 07:35:16;;;;;;;21.57;19.63;;;23.10;99.90;;;;;;5098749;28;20459;-68
2023/06/21 07:37:43;;;;;;;22.83;20.73;;;23.10;99.90;;;;;;5098777;28;20568;-68
2023/06/21 07:40:14;;;;;;;22.93;20.53;;;23.00;99.90;;;;;;5099536;28;20535;-69
2023/06/21 07:42:41;;;;;;;21.60;19.43;;;22.90;99.90;;;;;;5099023;28;20516;-68
2023/06/21 07:45:09;;;;;;;22.60;20.60;;;23.00;99.90;;;;;;5099147;28;20647;-68
2023/06/21 07:47:36;;;;;;;21.83;19.73;;;23.00;99.90;;;;;;5099012;28;20544;-68
2023/06/21 07:50:05;;;;;;;21.20;19.30;;;23.00;99.90;;;;;;5099425;28;20793;-68
2023/06/21 07:52:32;;;;;;;20.93;19.03;;;23.00;99.90;;;;;;5098838;28;20536;-68
2023/06/21 07:54:59;;;;;;;19.80;17.90;;;23.10;99.90;;;;;;5098362;28;20465;-68
2023/06/21 07:57:26;;;;;;;20.17;18.37;;;23.20;99.90;;;;;;5098516;28;20491;-68
2023/06/21 07:59:53;;;;;;;19.33;17.53;;;23.40;99.90;;;;;;5098863;28;20588;-68
2023/06/21 08:02:20;;;;;;;21.67;19.50;;;23.60;99.90;;;;;;5099157;28;20898;-70
2023/06/21 08:04:47;;;;;;;19.23;17.60;;;23.50;99.90;;;;;;5099019;28;20486;-69
2023/06/21 08:07:15;;;;;;;20.43;18.37;;;23.50;99.90;;;;;;5100120;28;20457;-69
2023/06/21 08:09:42;;;;;;;18.70;16.70;;;23.50;99.90;;;;;;5100555;28;20552;-69
2023/06/21 08:12:09;;;;;;;17.50;15.90;;;23.60;99.90;;;;;;5099708;28;20521;-69
2023/06/21 08:14:36;;;;;;;17.77;16.27;;;23.80;99.90;;;;;;5099805;28;20463;-70
2023/06/21 08:17:03;;;;;;;17.97;16.30;;;23.90;99.90;;;;;;5098229;28;20500;-70
2023/06/21 08:19:30;;;;;;;17.63;15.80;;;24.00;99.90;;;;;;5099173;28;20485;-69
2023/06/21 08:21:57;;;;;;;16.03;14.73;;;24.10;99.90;;;;;;5099570;28;20555;-67
2023/06/21 08:24:27;;;;;;;17.37;15.87;;;24.20;99.90;;;;;;5098635;28;20489;-69
2023/06/21 08:26:54;;;;;;;16.07;14.53;;;24.20;99.90;;;;;;5099452;28;20753;-69
2023/06/21 08:29:21;;;;;;;13.63;12.43;;;24.30;99.90;;;;;;5099677;28;20556;-69
2023/06/21 08:31:48;;;;;;;15.07;13.77;;;24.30;99.90;;;;;;5099480;28;20611;-69
2023/06/21 08:34:14;;;;;;;16.03;14.47;;;24.30;99.90;;;;;;5100235;28;20453;-70
2023/06/21 08:36:41;;;;;;;15.53;14.10;;;24.40;99.90;;;;;;5100500;28;21001;-69
2023/06/21 08:39:08;;;;;;;16.60;15.10;;;24.40;99.90;;;;;;5099110;28;20568;-68
2023/06/21 08:41:39;;;;;;;15.40;14.00;;;24.40;99.90;;;;;;5099074;28;20544;-68
2023/06/21 08:44:06;;;;;;;15.43;14.03;;;24.30;99.90;;;;;;5097620;28;20441;-68
2023/06/21 08:46:39;;;;;;;18.77;16.87;;;24.40;99.90;;;;;;5098411;28;20468;-69
2023/06/21 08:49:06;;;;;;;17.07;15.03;;;24.50;99.90;;;;;;5099449;28;20525;-69
2023/06/21 08:51:36;;;;;;;15.27;13.90;;;24.60;99.90;;;;;;5098051;28;20450;-69
2023/06/21 08:54:08;;;;;;;15.27;14.03;;;24.70;99.90;;;;;;5099102;28;20789;-69
2023/06/21 08:56:44;;;;;;;14.03;12.83;;;24.70;99.90;;;;;;5098277;28;20853;-69
2023/06/21 08:59:19;;;;;;;15.47;13.97;;;24.80;99.90;;;;;;5098133;28;20465;-69
2023/06/21 09:01:53;;;;;;;16.67;15.20;;;24.90;99.90;;;;;;5098015;28;20829;-69
2023/06/21 09:04:22;;;;;;;18.10;16.40;;;25.00;99.90;;;;;;5098047;28;20465;-67
2023/06/21 09:06:50;;;;;;;17.70;16.13;;;25.10;99.90;;;;;;5098279;28;20453;-67
2023/06/21 09:09:18;;;;;;;17.13;15.53;;;25.10;99.90;;;;;;5098314;28;20503;-68
2023/06/21 09:11:47;;;;;;;16.40;14.70;;;25.10;99.90;;;;;;5098374;28;20612;-68
2023/06/21 09:14:14;;;;;;;15.50;14.10;;;25.00;99.90;;;;;;5099328;28;20517;-68
2023/06/21 09:16:41;;;;;;;14.17;12.97;;;25.10;99.90;;;;;;5096916;28;20989;-68
2023/06/21 09:19:08;;;;;;;14.50;13.20;;;25.00;99.90;;;;;;5098408;28;20520;-68
2023/06/21 09:21:36;;;;;;;14.67;13.37;;;24.80;99.90;;;;;;5097431;28;20461;-68
2023/06/21 09:24:03;;;;;;;14.23;12.93;;;24.90;99.90;;;;;;5096934;28;20518;-68
2023/06/21 09:26:30;;;;;;;13.80;12.60;;;24.80;99.90;;;;;;5097234;28;20536;-68
2023/06/21 09:28:58;;;;;;;13.37;12.27;;;24.80;99.90;;;;;;5097134;28;20925;-68
2023/06/21 09:31:27;;;;;;;12.27;11.17;;;24.90;99.90;;;;;;5098212;28;20996;-68
2023/06/21 09:33:56;;;;;;;11.90;10.90;;;25.10;99.90;;;;;;5097284;28;20925;-68
2023/06/21 09:36:23;;;;;;;12.40;11.20;;;25.10;99.90;;;;;;5098377;28;20484;-68
2023/06/21 09:39:09;;;;;;;12.30;11.30;;;25.30;99.90;;;;;;5095146;27;20535;-68
2023/06/21 09:41:36;;;;;;;12.07;10.87;;;25.70;99.90;;;;;;5095881;28;20974;-68
2023/06/21 09:44:03;;;;;;;11.97;10.97;;;25.70;99.90;;;;;;5095038;28;20449;-69
2023/06/21 09:46:30;;;;;;;13.07;11.33;;;25.80;99.90;;;;;;5095114;28;20536;-69
2023/06/21 09:49:07;;;;;;;13.07;11.73;;;25.80;99.90;;;;;;5095726;28;20481;-69
2023/06/21 09:51:34;;;;;;;11.53;10.43;;;25.80;99.90;;;;;;5094900;28;20433;-69
2023/06/21 09:54:07;;;;;;;11.20;10.20;;;25.90;99.90;;;;;;5094473;28;21004;-68
2023/06/21 09:56:37;;;;;;;11.10;10.10;;;25.80;99.90;;;;;;5094041;28;20636;-69
2023/06/21 09:59:04;;;;;;;11.90;10.80;;;25.90;99.90;;;;;;5095712;28;20549;-69
2023/06/21 10:01:37;;;;;;;12.23;11.13;;;25.90;99.90;;;;;;5094467;28;20564;-68
2023/06/21 10:04:11;;;;;;;10.90;9.90;;;26.00;99.90;;;;;;5093794;28;20829;-68
2023/06/21 10:06:38;;;;;;;10.97;10.10;;;25.90;99.90;;;;;;5095510;28;20449;-68
2023/06/21 10:09:09;;;;;;;12.40;11.30;;;25.80;99.90;;;;;;5094849;28;20489;-69
2023/06/21 10:11:43;;;;;;;12.57;11.53;;;25.80;99.90;;;;;;5094497;28;20438;-68
2023/06/21 10:14:18;;;;;;;10.40;9.60;;;25.80;99.90;;;;;;5095708;28;20445;-68
2023/06/21 10:16:46;;;;;;;11.57;10.37;;;25.80;99.90;;;;;;5094152;28;20773;-67
2023/06/21 10:19:13;;;;;;;11.33;10.43;;;26.00;99.90;;;;;;5093447;28;20453;-69
2023/06/21 10:21:43;;;;;;;10.63;9.77;;;26.10;99.90;;;;;;5094464;28;20471;-69
2023/06/21 10:24:14;;;;;;;11.17;10.27;;;26.10;99.90;;;;;;5094252;28;20560;-69
2023/06/21 10:26:44;;;;;;;11.23;10.23;;;26.20;99.90;;;;;;5094386;28;20480;-68
2023/06/21 10:29:14;;;;;;;10.37;9.57;;;26.40;99.90;;;;;;5092987;28;20458;-69
2023/06/21 10:31:45;;;;;;;12.37;10.63;;;26.50;99.90;;;;;;5093985;28;20464;-67
2023/06/21 10:34:16;;;;;;;16.03;10.87;;;26.60;99.90;;;;;;5093270;28;20460;-68
2023/06/21 10:36:48;;;;;;;11.03;10.07;;;26.60;99.90;;;;;;5091774;28;20515;-68
2023/06/21 10:39:16;;;;;;;10.47;9.67;;;26.70;99.90;;;;;;5092643;28;20489;-68
2023/06/21 10:41:45;;;;;;;11.53;10.50;;;26.90;99.90;;;;;;5093141;28;20528;-68
2023/06/21 10:44:13;;;;;;;9.33;8.63;;;26.70;99.90;;;;;;5092358;28;21008;-68
2023/06/21 10:46:41;;;;;;;10.77;9.60;;;26.70;99.90;;;;;;5093410;28;20458;-68
2023/06/21 10:49:09;;;;;;;10.13;9.20;;;26.40;99.90;;;;;;5085878;28;20785;-68
2023/06/21 10:51:37;;;;;;;10.03;9.23;;;26.50;99.90;;;;;;5079517;28;20589;-68
2023/06/21 10:54:05;;;;;;;10.23;9.33;;;26.50;99.90;;;;;;5080938;28;20446;-68
2023/06/21 10:56:33;;;;;;;9.80;9.00;;;26.60;99.90;;;;;;5079498;28;20493;-68
2023/06/21 10:59:01;;;;;;;10.13;9.33;;;26.40;99.90;;;;;;5078542;28;20482;-68
2023/06/21 11:01:28;;;;;;;10.73;9.83;;;26.20;99.90;;;;;;5079470;28;20553;-68
2023/06/21 11:03:58;;;;;;;10.67;9.77;;;26.10;99.90;;;;;;5079536;28;20464;-68
2023/06/21 11:06:29;;;;;;;11.00;9.80;;;26.10;99.90;;;;;;5079380;28;20492;-68
2023/06/21 11:08:57;;;;;;;9.83;9.00;;;26.10;99.90;;;;;;5079636;28;20450;-68
2023/06/21 11:11:31;;;;;;;9.90;9.10;;;26.20;99.90;;;;;;5079327;28;20450;-68
2023/06/21 11:14:00;;;;;;;9.97;9.17;;;26.20;99.90;;;;;;5078658;28;20485;-68
2023/06/21 11:16:32;;;;;;;9.53;8.80;;;26.40;99.90;;;;;;5079501;28;20454;-68
2023/06/21 11:19:05;;;;;;;8.47;7.87;;;26.70;99.90;;;;;;5078926;28;20470;-68
2023/06/21 11:21:42;;;;;;;7.63;6.97;;;26.70;99.90;;;;;;5079363;28;20438;-67
2023/06/21 11:24:10;;;;;;;8.43;7.17;;;26.70;99.90;;;;;;5078542;28;20441;-68
2023/06/21 11:27:00;;;;;;;8.13;7.30;;;26.60;99.90;;;;;;5078603;28;20923;-68
2023/06/21 11:29:39;;;;;;;7.20;6.70;;;26.70;99.90;;;;;;5077962;28;20850;-68
2023/06/21 11:32:13;;;;;;;9.07;8.17;;;27.10;99.90;;;;;;5078711;28;20986;-68
2023/06/21 11:34:56;;;;;;;8.47;7.77;;;27.80;99.90;;;;;;5078284;28;20825;-68
2023/06/21 11:37:40;;;;;;;8.23;7.30;;;27.50;99.90;;;;;;5078593;28;20562;-69
2023/06/21 11:40:10;;;;;;;8.30;7.70;;;27.30;99.90;;;;;;5078462;28;20525;-69
2023/06/21 11:42:38;;;;;;;7.83;7.13;;;27.20;99.90;;;;;;5078341;28;20790;-68
2023/06/21 11:45:24;;;;;;;9.20;8.17;;;26.80;99.90;;;;;;5077875;28;20501;-69
2023/06/21 11:48:06;;;;;;;7.83;7.20;;;26.50;99.90;;;;;;5078269;28;20891;-69
2023/06/21 11:50:35;;;;;;;9.30;8.40;;;26.50;99.90;;;;;;5078725;28;20449;-71
2023/06/21 11:53:18;;;;;;;9.47;8.67;;;26.30;99.90;;;;;;5078977;28;20480;-69
2023/06/21 11:55:49;;;;;;;11.70;8.30;;;26.20;99.90;;;;;;5077655;28;20473;-69
2023/06/21 11:58:16;;;;;;;9.10;8.40;;;26.10;99.90;;;;;;5078819;28;20522;-68
2023/06/21 12:00:44;;;;;;;9.00;8.10;;;26.20;99.90;;;;;;5077222;28;20468;-68
2023/06/21 12:03:13;;;;;;;9.57;8.77;;;26.20;99.90;;;;;;5079117;28;20488;-68
2023/06/21 12:05:51;;;;;;;8.37;7.57;;;26.30;99.90;;;;;;5078822;28;20541;-68
2023/06/21 12:08:18;;;;;;;8.43;7.60;;;26.50;99.90;;;;;;5077322;28;21005;-68
2023/06/21 12:10:49;;;;;;;9.03;8.13;;;26.90;99.90;;;;;;5078541;28;20457;-68
2023/06/21 12:13:17;;;;;;;8.10;6.90;;;27.30;99.90;;;;;;5079285;28;20439;-68
2023/06/21 12:15:51;;;;;;;8.47;7.70;;;27.40;99.90;;;;;;5077534;28;20951;-68
2023/06/21 12:18:20;;;;;;;8.20;7.50;;;27.40;99.90;;;;;;5078825;28;21015;-68
2023/06/21 12:20:47;;;;;;;6.97;6.37;;;28.20;99.90;;;;;;5079488;28;20805;-68
2023/06/21 12:23:14;;;;;;;7.20;6.50;;;29.10;99.90;;;;;;5078548;28;20483;-68
2023/06/21 12:25:45;;;;;;;7.73;7.03;;;29.90;99.90;;;;;;5078140;28;20500;-68
2023/06/21 12:28:13;;;;;;;7.73;6.93;;;30.00;99.90;;;;;;5078567;28;20456;-68
2023/06/21 12:30:48;;;;;;;7.80;7.00;;;29.80;99.90;;;;;;5078160;28;20531;-68
2023/06/21 12:33:15;;;;;;;8.10;7.37;;;30.00;99.90;;;;;;5078351;28;20826;-68
2023/06/21 12:35:44;;;;;;;7.93;7.13;;;30.00;99.90;;;;;;5078060;28;20802;-68
2023/06/21 12:38:13;;;;;;;7.67;6.97;;;30.10;99.90;;;;;;5077749;28;20490;-68